Time;durP1;ratioP1;P1;durP2;ratioP2;P2;SDS_P1;SDS_P2;PMS_P1;PMS_P2;Temp;Humidity;BMP_temperature;BMP_pressure;BME280_temperature;BME280_humidity;BME280_pressure;Samples;Min_cycle;Max_cycle;Signal;HPM_P1;HPM_P2
2022/12/25 00:00:34;;;;;;;80.95;23.05;;;;;;;;;;5097130;28;20047;-73
2022/12/25 00:03:00;;;;;;;78.82;23.73;;;;;;;;;;5099443;28;20039;-73
2022/12/25 00:05:26;;;;;;;76.82;20.55;;;;;;;;;;5099654;28;20486;-73
2022/12/25 00:07:52;;;;;;;83.57;23.65;;;;;;;;;;5098205;28;20075;-73
2022/12/25 00:10:18;;;;;;;81.85;23.20;;;;;;;;;;5097973;28;20101;-73
2022/12/25 00:12:44;;;;;;;78.85;21.95;;;;;;;;;;5098708;28;20043;-73
2022/12/25 00:15:11;;;;;;;69.10;21.25;;;;;;;;;;5097192;28;20043;-73
2022/12/25 00:17:37;;;;;;;88.13;23.75;;;;;;;;;;5101851;28;20040;-73
2022/12/25 00:20:03;;;;;;;86.18;21.42;;;;;;;;;;5113570;28;20046;-73
2022/12/25 00:22:29;;;;;;;84.43;21.65;;;;;;;;;;5104202;28;20047;-72
2022/12/25 00:24:55;;;;;;;69.63;20.23;;;;;;;;;;5110786;28;20047;-73
2022/12/25 00:27:21;;;;;;;71.47;21.35;;;;;;;;;;5113462;28;20096;-73
2022/12/25 00:29:47;;;;;;;77.88;21.13;;;;;;;;;;5112356;28;20051;-73
2022/12/25 00:32:13;;;;;;;81.55;21.95;;;;;;;;;;5113137;28;20520;-73
2022/12/25 00:34:39;;;;;;;76.68;21.40;;;;;;;;;;5127191;28;20053;-73
2022/12/25 00:37:05;;;;;;;79.90;21.45;;;;;;;;;;5115463;27;20054;-73
2022/12/25 00:39:31;;;;;;;79.60;22.02;;;;;;;;;;5103958;28;20047;-73
2022/12/25 00:44:42;;;;;;;72.47;21.15;;;;;;;;;;5093622;28;20886;-73
2022/12/25 00:47:08;;;;;;;74.45;20.23;;;;;;;;;;5093270;28;20104;-73
2022/12/25 00:49:35;;;;;;;79.47;19.77;;;;;;;;;;5094096;28;20051;-73
2022/12/25 00:52:01;;;;;;;85.30;21.30;;;;;;;;;;5094275;28;20047;-73
2022/12/25 00:54:27;;;;;;;81.05;19.75;;;;;;;;;;5104610;28;20052;-73
2022/12/25 00:56:53;;;;;;;73.63;20.45;;;;;;;;;;5133671;27;20043;-73
2022/12/25 00:59:19;;;;;;;89.55;20.45;;;;;;;;;;5108346;27;20100;-73
2022/12/25 01:01:45;;;;;;;74.97;20.33;;;;;;;;;;5099720;28;20063;-73
2022/12/25 01:04:12;;;;;;;80.65;20.77;;;;;;;;;;5113938;28;20449;-73
2022/12/25 01:06:38;;;;;;;70.05;19.85;;;;;;;;;;5114704;28;20039;-73
2022/12/25 01:11:49;;;;;;;86.78;20.25;;;;;;;;;;5105574;28;20496;-73
2022/12/25 01:14:15;;;;;;;74.32;19.08;;;;;;;;;;5103436;28;20040;-73
2022/12/25 01:16:41;;;;;;;80.93;19.75;;;;;;;;;;5107699;28;20043;-73
2022/12/25 01:19:07;;;;;;;85.45;20.38;;;;;;;;;;5112965;28;20048;-73
2022/12/25 01:21:33;;;;;;;83.55;19.33;;;;;;;;;;5104442;28;20055;-73
2022/12/25 01:23:59;;;;;;;80.90;19.90;;;;;;;;;;5115286;28;20074;-73
2022/12/25 01:26:26;;;;;;;78.25;19.17;;;;;;;;;;5116504;28;20059;-73
2022/12/25 01:28:53;;;;;;;74.35;18.88;;;;;;;;;;5116141;28;20090;-73
2022/12/25 01:31:20;;;;;;;78.90;18.58;;;;;;;;;;5116228;28;20052;-73
2022/12/25 01:33:46;;;;;;;69.30;18.92;;;;;;;;;;5117355;27;20448;-73
2022/12/25 01:36:20;;;;;;;72.03;20.45;;;;;;;;;;5111032;28;20105;-73
2022/12/25 01:38:46;;;;;;;65.25;18.17;;;;;;;;;;5094481;28;20097;-73
2022/12/25 01:41:15;;;;;;;91.82;20.42;;;;;;;;;;5095683;28;20043;-73
2022/12/25 01:43:59;;;;;;;75.53;19.13;;;;;;;;;;5095558;28;20135;-73
2022/12/25 01:46:26;;;;;;;75.82;19.00;;;;;;;;;;5098320;28;20096;-73
2022/12/25 01:48:53;;;;;;;63.25;17.80;;;;;;;;;;5096835;28;20044;-73
2022/12/25 01:51:31;;;;;;;86.60;21.17;;;;;;;;;;5094240;28;20048;-73
2022/12/25 01:53:59;;;;;;;81.60;20.15;;;;;;;;;;5096863;28;20093;-73
2022/12/25 01:56:26;;;;;;;80.50;20.65;;;;;;;;;;5097978;28;20035;-73
2022/12/25 01:58:53;;;;;;;77.55;20.65;;;;;;;;;;5096124;28;20076;-73
2022/12/25 02:01:19;;;;;;;88.25;21.90;;;;;;;;;;5098363;28;20051;-73
2022/12/25 02:03:45;;;;;;;95.07;23.52;;;;;;;;;;5099292;28;20055;-73
2022/12/25 02:06:11;;;;;;;98.28;21.30;;;;;;;;;;5094574;27;20054;-73
2022/12/25 02:08:37;;;;;;;84.53;21.38;;;;;;;;;;5096840;28;20071;-73
2022/12/25 02:11:03;;;;;;;92.38;22.70;;;;;;;;;;5094202;28;20043;-73
2022/12/25 02:13:30;;;;;;;90.15;22.55;;;;;;;;;;5098005;28;20040;-73
2022/12/25 02:16:08;;;;;;;90.15;22.83;;;;;;;;;;5100006;28;20047;-73
2022/12/25 02:18:43;;;;;;;98.45;24.35;;;;;;;;;;5112667;28;20101;-73
2022/12/25 02:21:15;;;;;;;88.10;22.65;;;;;;;;;;5115303;28;20050;-73
2022/12/25 02:23:57;;;;;;;82.40;22.27;;;;;;;;;;5113820;27;20093;-73
2022/12/25 02:26:41;;;;;;;83.25;22.08;;;;;;;;;;5115442;28;20047;-73
2022/12/25 02:29:19;;;;;;;69.50;20.83;;;;;;;;;;5095470;28;20047;-73
2022/12/25 02:32:00;;;;;;;84.03;21.38;;;;;;;;;;5093432;28;20047;-73
2022/12/25 02:34:35;;;;;;;82.03;22.23;;;;;;;;;;5111472;28;20039;-73
2022/12/25 02:37:11;;;;;;;82.07;22.10;;;;;;;;;;5112841;27;20117;-73
2022/12/25 03:06:41;;;;;;;91.32;22.63;;;;;;;;;;5114826;28;20051;-73
2022/12/25 03:07:16;;;;;;;89.80;22.63;;;;;;;;;;5096949;28;20501;-73
2022/12/25 03:12:30;;;;;;;75.60;22.45;;;;;;;;;;5096174;28;20047;-73
2022/12/25 03:17:41;;;;;;;78.25;22.67;;;;;;;;;;5093751;28;20424;-73
2022/12/25 03:28:22;;;;;;;81.32;22.52;;;;;;;;;;5093007;28;21331;-73
2022/12/25 03:31:10;;;;;;;79.05;23.05;;;;;;;;;;5093807;28;20100;-73
2022/12/25 03:35:21;;;;;;;91.05;22.70;;;;;;;;;;5097360;28;20413;-73
2022/12/25 03:36:32;;;;;;;86.55;23.38;;;;;;;;;;5098499;28;20063;-74
2022/12/25 04:37:17;;;;;;;75.97;22.83;;;;;;;;;;5104159;28;20060;-73
2022/12/25 04:39:43;;;;;;;75.72;23.45;;;;;;;;;;5105203;28;20382;-73
2022/12/25 04:42:09;;;;;;;74.22;23.75;;;;;;;;;;5114925;28;20043;-73
2022/12/25 04:44:36;;;;;;;77.68;23.15;;;;;;;;;;5114618;28;20042;-73
2022/12/25 04:47:02;;;;;;;78.95;23.25;;;;;;;;;;5106101;28;20055;-73
2022/12/25 04:49:28;;;;;;;72.97;23.90;;;;;;;;;;5100183;28;20397;-74
2022/12/25 04:51:54;;;;;;;69.00;23.38;;;;;;;;;;5096108;28;20105;-73
2022/12/25 04:54:20;;;;;;;72.03;22.95;;;;;;;;;;5097708;28;20036;-74
2022/12/25 04:56:46;;;;;;;72.57;22.85;;;;;;;;;;5098228;28;20108;-73
2022/12/25 04:59:12;;;;;;;75.53;23.95;;;;;;;;;;5097150;28;20055;-73
2022/12/25 05:01:38;;;;;;;73.78;24.15;;;;;;;;;;5096945;28;20087;-73
2022/12/25 05:04:04;;;;;;;77.22;25.30;;;;;;;;;;5097533;28;20047;-73
2022/12/25 05:06:30;;;;;;;67.20;23.27;;;;;;;;;;5097389;28;20056;-73
2022/12/25 05:08:57;;;;;;;72.22;22.83;;;;;;;;;;5097142;28;20512;-73
2022/12/25 05:11:23;;;;;;;72.93;23.85;;;;;;;;;;5097869;28;20088;-73
2022/12/25 05:13:49;;;;;;;73.13;22.67;;;;;;;;;;5096449;28;21603;-73
2022/12/25 05:16:17;;;;;;;72.85;24.65;;;;;;;;;;5100276;28;20458;-73
2022/12/25 05:18:43;;;;;;;77.25;25.88;;;;;;;;;;5102601;27;20040;-74
2022/12/25 05:21:10;;;;;;;77.53;25.77;;;;;;;;;;5094852;28;20092;-73
2022/12/25 05:23:37;;;;;;;84.10;24.63;;;;;;;;;;5095919;28;20389;-73
2022/12/25 05:26:04;;;;;;;75.90;24.83;;;;;;;;;;5105599;28;20051;-73
2022/12/25 05:28:30;;;;;;;82.72;27.10;;;;;;;;;;5095712;28;20058;-73
2022/12/25 05:30:57;;;;;;;78.47;26.42;;;;;;;;;;5096230;27;20121;-73
2022/12/25 05:33:23;;;;;;;73.78;26.27;;;;;;;;;;5099878;28;20123;-73
2022/12/25 05:35:49;;;;;;;72.97;24.80;;;;;;;;;;5113142;28;20051;-73
2022/12/25 05:38:15;;;;;;;75.55;26.25;;;;;;;;;;5116124;27;20040;-73
2022/12/25 05:40:41;;;;;;;74.55;25.50;;;;;;;;;;5116161;28;20046;-73
2022/12/25 05:43:07;;;;;;;76.57;26.23;;;;;;;;;;5114992;28;20071;-73
2022/12/25 05:45:33;;;;;;;71.88;25.20;;;;;;;;;;5115586;28;20049;-73
2022/12/25 05:47:59;;;;;;;78.63;26.38;;;;;;;;;;5115467;28;20516;-73
2022/12/25 05:50:25;;;;;;;77.05;27.00;;;;;;;;;;5103948;28;20058;-73
2022/12/25 05:52:51;;;;;;;80.75;25.35;;;;;;;;;;5114062;28;20044;-73
2022/12/25 05:55:17;;;;;;;79.65;27.27;;;;;;;;;;5114863;28;20524;-73
2022/12/25 05:57:43;;;;;;;83.47;25.73;;;;;;;;;;5104025;28;20040;-73
2022/12/25 06:00:10;;;;;;;69.63;23.45;;;;;;;;;;5099988;27;20040;-73
2022/12/25 06:02:36;;;;;;;71.95;26.58;;;;;;;;;;5103838;28;20086;-73
2022/12/25 06:05:03;;;;;;;80.03;27.67;;;;;;;;;;5108783;28;20598;-73
2022/12/25 06:07:30;;;;;;;75.78;26.48;;;;;;;;;;5095112;28;20086;-73
2022/12/25 06:09:56;;;;;;;86.47;28.02;;;;;;;;;;5095513;28;20093;-73
2022/12/25 06:12:22;;;;;;;81.13;27.50;;;;;;;;;;5097574;28;20043;-73
2022/12/25 06:14:48;;;;;;;79.55;29.45;;;;;;;;;;5095725;28;20039;-73
2022/12/25 06:17:14;;;;;;;82.60;27.52;;;;;;;;;;5096047;28;20040;-73
2022/12/25 06:19:41;;;;;;;78.82;27.92;;;;;;;;;;5097946;27;20054;-73
2022/12/25 06:22:07;;;;;;;71.40;28.02;;;;;;;;;;5095014;28;20047;-73
2022/12/25 06:24:34;;;;;;;71.85;27.95;;;;;;;;;;5094665;27;20082;-73
2022/12/25 06:27:00;;;;;;;82.60;28.02;;;;;;;;;;5099824;27;20492;-73
2022/12/25 06:29:26;;;;;;;79.18;27.52;;;;;;;;;;5094997;28;20404;-73
2022/12/25 06:31:55;;;;;;;75.57;27.50;;;;;;;;;;5094872;28;20047;-73
2022/12/25 06:34:22;;;;;;;76.10;26.95;;;;;;;;;;5094221;28;20096;-73
2022/12/25 06:36:48;;;;;;;75.60;25.90;;;;;;;;;;5095210;28;20044;-73
2022/12/25 06:39:14;;;;;;;81.20;27.23;;;;;;;;;;5097754;28;20051;-73
2022/12/25 06:41:40;;;;;;;76.20;27.33;;;;;;;;;;5094002;28;20067;-73
2022/12/25 06:44:06;;;;;;;85.60;28.77;;;;;;;;;;5093137;28;20051;-73
2022/12/25 06:46:32;;;;;;;82.32;26.92;;;;;;;;;;5097228;28;20043;-73
2022/12/25 06:48:59;;;;;;;85.82;28.23;;;;;;;;;;5093441;28;20527;-74
2022/12/25 06:51:27;;;;;;;80.13;28.58;;;;;;;;;;5095651;28;20128;-73
2022/12/25 06:53:54;;;;;;;79.20;28.58;;;;;;;;;;5093440;28;20040;-73
2022/12/25 06:56:22;;;;;;;81.93;28.42;;;;;;;;;;5094522;28;20058;-73
2022/12/25 06:58:50;;;;;;;81.53;27.75;;;;;;;;;;5093706;28;20052;-73
2022/12/25 07:01:20;;;;;;;90.00;27.20;;;;;;;;;;5094436;28;20059;-73
2022/12/25 07:03:48;;;;;;;89.70;28.38;;;;;;;;;;5094533;27;20048;-73
2022/12/25 07:06:14;;;;;;;85.57;28.33;;;;;;;;;;5093348;28;20048;-73
2022/12/25 07:08:40;;;;;;;83.70;26.45;;;;;;;;;;5104760;28;20057;-73
2022/12/25 07:11:06;;;;;;;83.03;29.05;;;;;;;;;;5099591;28;20048;-73
2022/12/25 07:13:32;;;;;;;75.90;27.75;;;;;;;;;;5093876;28;20055;-71
2022/12/25 07:15:59;;;;;;;70.78;27.00;;;;;;;;;;5093338;28;20501;-71
2022/12/25 07:18:26;;;;;;;86.72;28.20;;;;;;;;;;5097188;28;20051;-71
2022/12/25 07:20:54;;;;;;;81.78;27.25;;;;;;;;;;5094239;27;20051;-72
2022/12/25 07:23:20;;;;;;;69.35;26.65;;;;;;;;;;5095258;28;20101;-72
2022/12/25 07:25:56;;;;;;;73.20;26.20;;;;;;;;;;5097795;28;20048;-71
2022/12/25 07:28:22;;;;;;;79.60;26.13;;;;;;;;;;5094895;28;20044;-72
2022/12/25 07:30:48;;;;;;;73.20;26.80;;;;;;;;;;5094628;28;20043;-72
2022/12/25 07:33:14;;;;;;;67.55;24.92;;;;;;;;;;5103877;28;20051;-72
2022/12/25 07:35:41;;;;;;;66.65;25.25;;;;;;;;;;5097303;28;20039;-72
2022/12/25 07:38:07;;;;;;;65.57;24.42;;;;;;;;;;5118226;27;20083;-72
2022/12/25 07:40:33;;;;;;;73.97;25.73;;;;;;;;;;5132330;27;20050;-72
2022/12/25 07:42:59;;;;;;;74.68;26.35;;;;;;;;;;5115272;27;20497;-72
2022/12/25 07:45:25;;;;;;;81.93;26.42;;;;;;;;;;5112879;28;20043;-72
2022/12/25 07:47:51;;;;;;;66.40;23.92;;;;;;;;;;5110945;28;20084;-72
2022/12/25 07:50:17;;;;;;;61.30;23.02;;;;;;;;;;5092286;28;20039;-72
2022/12/25 07:52:45;;;;;;;72.90;24.73;;;;;;;;;;5111625;28;20047;-73
2022/12/25 07:55:11;;;;;;;62.83;23.77;;;;;;;;;;5112427;28;20078;-72
2022/12/25 07:57:37;;;;;;;57.90;22.85;;;;;;;;;;5113161;28;20054;-73
2022/12/25 08:00:04;;;;;;;65.15;25.00;;;;;;;;;;5111006;28;20127;-73
2022/12/25 08:02:30;;;;;;;67.97;24.88;;;;;;;;;;5099063;27;20137;-72
2022/12/25 08:04:56;;;;;;;51.70;23.88;;;;;;;;;;5094005;28;20390;-72
2022/12/25 08:07:22;;;;;;;64.75;23.55;;;;;;;;;;5094821;28;20052;-72
2022/12/25 08:09:49;;;;;;;55.15;22.90;;;;;;;;;;5095763;28;20036;-72
2022/12/25 08:12:15;;;;;;;64.80;24.08;;;;;;;;;;5095412;28;20055;-72
2022/12/25 08:14:41;;;;;;;51.83;23.27;;;;;;;;;;5095271;28;20044;-72
2022/12/25 08:17:07;;;;;;;51.63;22.60;;;;;;;;;;5101467;28;20114;-72
2022/12/25 08:19:33;;;;;;;57.97;23.45;;;;;;;;;;5105362;28;20050;-73
2022/12/25 08:21:59;;;;;;;52.38;22.40;;;;;;;;;;5110438;28;20051;-73
2022/12/25 08:24:26;;;;;;;54.72;22.88;;;;;;;;;;5111729;28;20052;-73
2022/12/25 08:26:52;;;;;;;53.03;21.52;;;;;;;;;;5111495;28;20555;-73
2022/12/25 08:29:18;;;;;;;51.72;21.63;;;;;;;;;;5112715;28;20040;-73
2022/12/25 08:31:44;;;;;;;54.83;21.77;;;;;;;;;;5098691;28;20410;-73
2022/12/25 08:34:10;;;;;;;56.33;22.60;;;;;;;;;;5094194;28;20051;-73
2022/12/25 08:36:37;;;;;;;55.85;23.20;;;;;;;;;;5091852;28;20525;-73
2022/12/25 08:39:03;;;;;;;50.65;23.67;;;;;;;;;;5092135;28;20378;-73
2022/12/25 08:41:30;;;;;;;54.20;22.10;;;;;;;;;;5097542;28;20054;-73
2022/12/25 08:43:59;;;;;;;53.83;22.33;;;;;;;;;;5112489;28;20084;-73
2022/12/25 08:46:25;;;;;;;53.38;22.30;;;;;;;;;;5111309;28;20043;-73
2022/12/25 08:48:51;;;;;;;49.83;20.63;;;;;;;;;;5112390;28;20153;-73
2022/12/25 08:51:19;;;;;;;52.60;22.40;;;;;;;;;;5108032;28;20493;-73
2022/12/25 08:53:46;;;;;;;48.85;22.02;;;;;;;;;;5106880;28;20176;-73
2022/12/25 08:56:12;;;;;;;49.65;21.05;;;;;;;;;;5112223;28;20047;-73
2022/12/25 08:58:39;;;;;;;52.95;21.05;;;;;;;;;;5098596;28;20507;-73
2022/12/25 09:01:05;;;;;;;47.70;20.77;;;;;;;;;;5107501;28;20056;-73
2022/12/25 09:03:32;;;;;;;47.28;20.70;;;;;;;;;;5104421;28;20407;-73
2022/12/25 09:06:02;;;;;;;46.50;20.90;;;;;;;;;;5110430;28;20050;-73
2022/12/25 09:08:28;;;;;;;44.78;19.83;;;;;;;;;;5093309;28;20044;-73
2022/12/25 09:10:54;;;;;;;53.30;21.30;;;;;;;;;;5091809;28;20048;-73
2022/12/25 09:13:20;;;;;;;45.80;20.27;;;;;;;;;;5098859;28;20058;-73
2022/12/25 09:15:46;;;;;;;45.28;20.05;;;;;;;;;;5111010;28;20051;-73
2022/12/25 09:18:12;;;;;;;49.25;20.17;;;;;;;;;;5110446;28;20444;-73
2022/12/25 09:20:38;;;;;;;44.92;21.08;;;;;;;;;;5109317;28;20066;-73
2022/12/25 09:23:04;;;;;;;47.55;19.95;;;;;;;;;;5113566;27;20117;-72
2022/12/25 09:25:30;;;;;;;45.58;19.80;;;;;;;;;;5115032;28;20059;-73
2022/12/25 09:27:56;;;;;;;47.05;19.92;;;;;;;;;;5115788;28;20040;-73
2022/12/25 09:30:22;;;;;;;43.53;19.73;;;;;;;;;;5115753;28;20062;-72
2022/12/25 09:32:49;;;;;;;45.20;20.38;;;;;;;;;;5115694;28;20046;-73
2022/12/25 09:35:17;;;;;;;46.60;20.35;;;;;;;;;;5113919;28;20039;-73
2022/12/25 09:37:43;;;;;;;45.15;20.25;;;;;;;;;;5114237;28;20512;-73
2022/12/25 09:40:13;;;;;;;40.67;18.10;;;;;;;;;;5115410;28;20104;-73
2022/12/25 09:42:39;;;;;;;42.70;18.80;;;;;;;;;;5115520;28;20046;-73
2022/12/25 09:45:15;;;;;;;39.45;19.15;;;;;;;;;;5097702;27;20048;-73
2022/12/25 09:47:42;;;;;;;39.63;18.65;;;;;;;;;;5108928;28;20040;-73
2022/12/25 09:50:27;;;;;;;41.58;17.77;;;;;;;;;;5109135;28;20047;-73
2022/12/25 09:52:56;;;;;;;39.35;17.52;;;;;;;;;;5097142;28;20120;-73
2022/12/25 09:55:23;;;;;;;35.83;17.50;;;;;;;;;;5115462;27;20050;-73
2022/12/25 09:57:51;;;;;;;44.60;17.63;;;;;;;;;;5114563;28;20043;-73
2022/12/25 10:00:19;;;;;;;39.33;16.75;;;;;;;;;;5116002;27;20051;-73
2022/12/25 10:02:57;;;;;;;34.50;17.75;;;;;;;;;;5117317;27;20516;-73
2022/12/25 10:05:38;;;;;;;36.95;18.23;;;;;;;;;;5114972;28;20438;-73
2022/12/25 10:08:23;;;;;;;36.03;17.23;;;;;;;;;;5115081;28;20055;-73
2022/12/25 10:10:59;;;;;;;30.17;16.40;;;;;;;;;;5113591;28;20055;-73
2022/12/25 10:13:34;;;;;;;39.50;17.08;;;;;;;;;;5111098;28;20350;-73
2022/12/25 10:16:08;;;;;;;36.00;17.35;;;;;;;;;;5097301;28;20046;-73
2022/12/25 10:18:53;;;;;;;35.63;16.30;;;;;;;;;;5114943;28;20135;-73
2022/12/25 10:21:19;;;;;;;36.20;17.67;;;;;;;;;;5114847;28;20066;-73
2022/12/25 10:23:51;;;;;;;35.72;16.65;;;;;;;;;;5112902;28;20047;-73
2022/12/25 10:26:21;;;;;;;34.42;16.30;;;;;;;;;;5114511;28;20468;-73
2022/12/25 10:28:55;;;;;;;41.45;16.80;;;;;;;;;;5114585;28;20108;-73
2022/12/25 10:31:23;;;;;;;29.70;16.20;;;;;;;;;;5113125;28;20059;-73
2022/12/25 10:33:50;;;;;;;38.38;16.48;;;;;;;;;;5102421;28;20051;-73
2022/12/25 10:36:19;;;;;;;37.03;17.23;;;;;;;;;;5094031;28;20503;-72
2022/12/25 10:38:46;;;;;;;32.60;16.15;;;;;;;;;;5114355;27;20048;-73
2022/12/25 10:41:33;;;;;;;35.92;17.17;;;;;;;;;;5110219;28;20172;-73
2022/12/25 10:43:59;;;;;;;32.97;15.82;;;;;;;;;;5113294;28;20048;-73
2022/12/25 10:46:26;;;;;;;34.58;16.85;;;;;;;;;;5113038;28;20051;-73
2022/12/25 10:48:54;;;;;;;31.33;15.50;;;;;;;;;;5114137;28;20043;-73
2022/12/25 10:51:28;;;;;;;36.60;16.85;;;;;;;;;;5127798;27;20500;-73
2022/12/25 10:53:54;;;;;;;33.38;16.48;;;;;;;;;;5121912;27;20047;-73
2022/12/25 10:56:20;;;;;;;31.30;16.25;;;;;;;;;;5112844;28;20054;-73
2022/12/25 10:58:46;;;;;;;32.10;16.00;;;;;;;;;;5111176;28;20409;-73
2022/12/25 11:01:13;;;;;;;33.03;16.42;;;;;;;;;;5113652;28;20074;-73
2022/12/25 11:03:46;;;;;;;30.13;15.73;;;;;;;;;;5113863;28;20035;-73
2022/12/25 11:06:22;;;;;;;33.00;15.77;;;;;;;;;;5113074;28;20059;-73
2022/12/25 11:08:51;;;;;;;34.47;16.02;;;;;;;;;;5113474;28;20110;-73
2022/12/25 11:11:19;;;;;;;33.35;15.55;;;;;;;;;;5100910;28;20051;-73
2022/12/25 11:13:49;;;;;;;33.38;15.43;;;;;;;;;;5093855;28;20048;-73
2022/12/25 11:16:26;;;;;;;29.13;16.23;;;;;;;;;;5093353;28;20055;-73
2022/12/25 11:18:53;;;;;;;31.95;16.35;;;;;;;;;;5093090;28;20051;-74
2022/12/25 11:21:24;;;;;;;27.15;15.02;;;;;;;;;;5113476;28;20043;-74
2022/12/25 11:23:55;;;;;;;35.05;15.90;;;;;;;;;;5113568;28;20046;-74
2022/12/25 11:26:21;;;;;;;;;;;;;;;;;;5110129;28;20100;-74
2022/12/25 11:28:48;;;;;;;32.35;14.85;;;;;;;;;;5093546;28;19920;-74
2022/12/25 11:31:18;;;;;;;24.90;14.48;;;;;;;;;;5097389;28;20043;-74
2022/12/25 11:34:04;;;;;;;30.13;14.90;;;;;;;;;;5112212;28;20048;-74
2022/12/25 11:36:47;;;;;;;28.55;15.15;;;;;;;;;;5112618;28;20042;-74
2022/12/25 11:39:22;;;;;;;29.70;15.05;;;;;;;;;;5111968;28;20062;-74
2022/12/25 11:41:51;;;;;;;30.73;15.95;;;;;;;;;;5113290;28;20043;-74
2022/12/25 11:44:26;;;;;;;28.90;15.45;;;;;;;;;;5112485;28;20067;-74
2022/12/25 11:46:54;;;;;;;28.25;15.07;;;;;;;;;;5113256;28;20111;-74
2022/12/25 11:49:21;;;;;;;29.92;14.95;;;;;;;;;;5114367;27;20413;-74
2022/12/25 11:51:49;;;;;;;29.83;15.85;;;;;;;;;;5111850;28;20077;-74
2022/12/25 11:54:31;;;;;;;28.70;15.48;;;;;;;;;;5112375;28;20040;-74
2022/12/25 11:56:59;;;;;;;32.72;16.33;;;;;;;;;;5114197;27;20035;-74
2022/12/25 11:59:30;;;;;;;35.30;16.20;;;;;;;;;;5133598;27;20039;-74
2022/12/25 12:01:59;;;;;;;27.40;16.02;;;;;;;;;;5133340;27;20500;-74
2022/12/25 12:04:36;;;;;;;30.42;14.65;;;;;;;;;;5120762;27;20048;-74
2022/12/25 12:07:32;;;;;;;29.83;15.43;;;;;;;;;;5094926;28;20048;-74
2022/12/25 12:09:58;;;;;;;26.48;15.13;;;;;;;;;;5103439;27;20081;-74
2022/12/25 12:12:35;;;;;;;29.98;15.55;;;;;;;;;;5092571;28;20083;-74
2022/12/25 12:15:16;;;;;;;23.70;14.80;;;;;;;;;;5092580;28;20048;-74
2022/12/25 12:17:42;;;;;;;27.08;14.18;;;;;;;;;;5092464;28;20039;-74
2022/12/25 12:20:27;;;;;;;29.33;15.73;;;;;;;;;;5130547;28;20118;-74
2022/12/25 12:22:53;;;;;;;24.25;15.20;;;;;;;;;;5111315;27;20420;-74
2022/12/25 12:25:20;;;;;;;28.98;14.73;;;;;;;;;;5092137;28;20478;-74
2022/12/25 12:27:51;;;;;;;26.23;13.52;;;;;;;;;;5092157;28;20044;-74
2022/12/25 12:30:27;;;;;;;28.60;14.00;;;;;;;;;;5092335;28;20051;-74
2022/12/25 12:32:57;;;;;;;24.17;13.80;;;;;;;;;;5102257;28;20035;-74
2022/12/25 12:35:43;;;;;;;28.30;13.25;;;;;;;;;;5105421;28;20039;-74
2022/12/25 12:38:20;;;;;;;26.23;13.48;;;;;;;;;;5100807;28;20109;-74
2022/12/25 12:41:02;;;;;;;27.40;13.43;;;;;;;;;;5109494;28;20051;-74
2022/12/25 12:43:36;;;;;;;24.45;12.18;;;;;;;;;;5119228;28;20510;-74
2022/12/25 12:46:05;;;;;;;25.25;12.60;;;;;;;;;;5112470;28;20053;-74
2022/12/25 12:48:37;;;;;;;27.48;13.27;;;;;;;;;;5111684;28;20126;-74
2022/12/25 12:51:04;;;;;;;23.30;12.93;;;;;;;;;;5110550;28;20097;-74
2022/12/25 12:53:31;;;;;;;24.42;12.65;;;;;;;;;;5103801;28;20044;-74
2022/12/25 12:56:08;;;;;;;26.42;13.40;;;;;;;;;;5109279;28;20043;-74
2022/12/25 12:58:36;;;;;;;27.60;13.18;;;;;;;;;;5111460;27;20052;-74
2022/12/25 13:01:13;;;;;;;23.35;14.25;;;;;;;;;;5115381;28;20052;-74
2022/12/25 13:03:48;;;;;;;30.75;14.35;;;;;;;;;;5108842;28;20051;-74
2022/12/25 13:06:19;;;;;;;31.63;14.27;;;;;;;;;;5111369;28;20051;-74
2022/12/25 13:08:48;;;;;;;25.88;13.55;;;;;;;;;;5121358;27;20063;-74
2022/12/25 13:11:22;;;;;;;23.40;12.90;;;;;;;;;;5122534;27;20070;-74
2022/12/25 13:13:49;;;;;;;25.90;12.88;;;;;;;;;;5114115;27;20043;-74
2022/12/25 13:16:34;;;;;;;27.55;13.40;;;;;;;;;;5106721;27;20142;-74
2022/12/25 13:19:04;;;;;;;24.70;12.27;;;;;;;;;;5112054;28;20189;-74
2022/12/25 13:21:30;;;;;;;27.13;13.75;;;;;;;;;;5111261;28;20044;-74
2022/12/25 13:23:58;;;;;;;30.13;13.27;;;;;;;;;;5123610;27;20424;-74
2022/12/25 13:26:24;;;;;;;29.77;12.30;;;;;;;;;;5114281;27;20054;-74
2022/12/25 13:28:50;;;;;;;25.17;12.85;;;;;;;;;;5116116;28;20490;-74
2022/12/25 13:31:21;;;;;;;32.38;13.48;;;;;;;;;;5115721;28;20054;-74
2022/12/25 13:33:50;;;;;;;35.75;13.32;;;;;;;;;;5126830;27;20051;-74
2022/12/25 13:36:16;;;;;;;28.77;12.75;;;;;;;;;;5121441;27;20059;-75
2022/12/25 13:38:46;;;;;;;25.65;12.90;;;;;;;;;;5115825;27;20460;-74
2022/12/25 13:44:20;;;;;;;21.05;10.85;;;;;;;;;;5092757;28;20044;-74
2022/12/25 13:46:46;;;;;;;22.70;11.77;;;;;;;;;;5091109;28;20135;-74
2022/12/25 13:49:14;;;;;;;22.70;12.10;;;;;;;;;;5090092;28;20071;-74
2022/12/25 13:51:40;;;;;;;25.55;12.25;;;;;;;;;;5091263;28;20051;-74
2022/12/25 13:54:06;;;;;;;24.48;12.15;;;;;;;;;;5092676;28;20131;-74
2022/12/25 13:56:34;;;;;;;25.08;12.75;;;;;;;;;;5091152;28;20032;-74
2022/12/25 13:59:00;;;;;;;25.95;12.98;;;;;;;;;;5091958;28;20469;-74
2022/12/25 14:01:27;;;;;;;24.23;13.57;;;;;;;;;;5092433;28;20510;-75
2022/12/25 14:03:53;;;;;;;30.58;13.95;;;;;;;;;;5091484;28;20058;-75
2022/12/25 14:06:29;;;;;;;30.05;14.98;;;;;;;;;;5087104;28;20106;-75
2022/12/25 14:08:57;;;;;;;30.13;14.55;;;;;;;;;;5071810;28;20390;-75
2022/12/25 14:11:24;;;;;;;29.02;15.38;;;;;;;;;;5072131;28;20060;-75
2022/12/25 14:13:53;;;;;;;25.02;14.77;;;;;;;;;;5087413;28;20063;-75
2022/12/25 14:16:20;;;;;;;27.88;15.20;;;;;;;;;;5092212;28;20055;-75
2022/12/25 14:18:50;;;;;;;27.23;16.35;;;;;;;;;;5093003;28;20056;-75
2022/12/25 14:21:23;;;;;;;29.60;17.37;;;;;;;;;;5101785;28;20058;-74
2022/12/25 14:23:49;;;;;;;28.73;15.88;;;;;;;;;;5108144;27;20100;-75
2022/12/25 14:26:20;;;;;;;29.02;17.65;;;;;;;;;;5110542;28;20131;-75
2022/12/25 14:28:48;;;;;;;32.92;16.27;;;;;;;;;;5103020;28;20044;-74
2022/12/25 14:31:14;;;;;;;27.63;16.20;;;;;;;;;;5103971;28;20419;-75
2022/12/25 14:33:40;;;;;;;29.05;16.50;;;;;;;;;;5112119;27;20512;-75
2022/12/25 14:36:07;;;;;;;33.55;16.70;;;;;;;;;;5109740;28;20489;-75
2022/12/25 14:38:39;;;;;;;30.50;16.95;;;;;;;;;;5100934;27;20420;-75
2022/12/25 14:41:19;;;;;;;30.13;16.20;;;;;;;;;;5109856;27;20441;-75
2022/12/25 14:43:52;;;;;;;37.25;16.60;;;;;;;;;;5102218;28;20036;-74
2022/12/25 14:46:22;;;;;;;27.55;15.93;;;;;;;;;;5101873;28;20456;-75
2022/12/25 14:48:58;;;;;;;30.77;16.70;;;;;;;;;;5107308;27;20488;-75
2022/12/25 14:51:24;;;;;;;33.10;17.55;;;;;;;;;;5096334;28;20394;-75
2022/12/25 14:53:52;;;;;;;29.45;16.77;;;;;;;;;;5107027;28;20048;-75
2022/12/25 14:56:19;;;;;;;33.47;17.27;;;;;;;;;;5106196;27;20047;-75
2022/12/25 14:58:55;;;;;;;31.02;16.10;;;;;;;;;;5106531;28;20110;-75
2022/12/25 15:01:28;;;;;;;32.03;15.80;;;;;;;;;;5105707;27;20391;-77
2022/12/25 15:04:09;;;;;;;32.72;16.38;;;;;;;;;;5111241;27;20481;-72
2022/12/25 15:06:36;;;;;;;29.35;16.30;;;;;;;;;;5111939;27;20045;-73
2022/12/25 15:09:12;;;;;;;34.78;17.05;;;;;;;;;;5113786;27;20048;-73
2022/12/25 15:11:38;;;;;;;29.88;17.05;;;;;;;;;;5102639;27;20047;-73
2022/12/25 15:14:04;;;;;;;30.83;16.88;;;;;;;;;;5110096;27;20497;-73
2022/12/25 15:16:33;;;;;;;33.50;16.95;;;;;;;;;;5112040;27;20101;-73
2022/12/25 15:19:00;;;;;;;37.80;18.13;;;;;;;;;;5119243;27;20400;-73
2022/12/25 15:21:26;;;;;;;33.28;17.83;;;;;;;;;;5104776;27;20039;-72
2022/12/25 15:23:53;;;;;;;30.02;17.30;;;;;;;;;;5111836;27;20043;-73
2022/12/25 15:26:19;;;;;;;28.63;17.48;;;;;;;;;;5098764;28;20109;-73
2022/12/25 15:28:45;;;;;;;28.35;18.10;;;;;;;;;;5102702;27;20040;-73
2022/12/25 15:31:20;;;;;;;32.63;18.33;;;;;;;;;;5106287;27;20055;-73
2022/12/25 15:33:46;;;;;;;36.50;19.77;;;;;;;;;;5106608;27;20047;-73
2022/12/25 15:36:12;;;;;;;36.55;19.05;;;;;;;;;;5102734;27;20066;-73
2022/12/25 15:38:38;;;;;;;35.88;18.63;;;;;;;;;;5100577;28;20058;-73
2022/12/25 15:41:04;;;;;;;33.33;19.08;;;;;;;;;;5105188;28;20804;-72
2022/12/25 15:43:30;;;;;;;32.70;19.50;;;;;;;;;;5111022;27;20039;-73
2022/12/25 15:45:56;;;;;;;30.92;18.27;;;;;;;;;;5101821;27;20043;-72
2022/12/25 15:48:22;;;;;;;32.30;18.98;;;;;;;;;;5106768;27;20075;-72
2022/12/25 15:50:49;;;;;;;32.58;19.90;;;;;;;;;;5109474;27;20054;-73
2022/12/25 15:53:15;;;;;;;38.88;19.80;;;;;;;;;;5097777;28;20126;-73
2022/12/25 15:55:41;;;;;;;36.67;19.90;;;;;;;;;;5099417;28;20039;-73
2022/12/25 15:58:10;;;;;;;37.58;21.42;;;;;;;;;;5100790;28;20039;-73
2022/12/25 16:00:36;;;;;;;35.95;19.98;;;;;;;;;;5110306;27;20066;-73
2022/12/25 16:03:02;;;;;;;36.58;20.08;;;;;;;;;;5112905;28;20054;-73
2022/12/25 16:05:29;;;;;;;44.63;28.92;;;;;;;;;;5107958;27;20040;-72
2022/12/25 16:07:55;;;;;;;46.95;22.90;;;;;;;;;;5099755;28;20121;-73
2022/12/25 16:10:21;;;;;;;40.70;22.95;;;;;;;;;;5096691;28;20055;-73
2022/12/25 16:12:47;;;;;;;44.28;22.48;;;;;;;;;;5106874;27;20466;-73